sensor_id;sensor_type;location;lat;lon;timestamp;P1;durP1;ratioP1;P2;durP2;ratioP2
33347;SDS011;19707;51.158;17.124;2022-07-23T00:00:53;20.62;;;14.90;;
33347;SDS011;19707;51.158;17.124;2022-07-23T00:03:54;14.73;;;13.10;;
33347;SDS011;19707;51.158;17.124;2022-07-23T00:06:56;25.75;;;13.83;;
33347;SDS011;19707;51.158;17.124;2022-07-23T00:09:57;13.80;;;12.50;;
33347;SDS011;19707;51.158;17.124;2022-07-23T00:12:59;14.70;;;13.30;;
33347;SDS011;19707;51.158;17.124;2022-07-23T00:16:00;17.37;;;13.40;;
33347;SDS011;19707;51.158;17.124;2022-07-23T00:19:01;14.47;;;13.03;;
33347;SDS011;19707;51.158;17.124;2022-07-23T00:22:03;16.67;;;13.68;;
33347;SDS011;19707;51.158;17.124;2022-07-23T00:25:04;15.30;;;13.75;;
33347;SDS011;19707;51.158;17.124;2022-07-23T00:28:06;15.25;;;13.10;;
33347;SDS011;19707;51.158;17.124;2022-07-23T00:31:07;16.35;;;14.63;;
33347;SDS011;19707;51.158;17.124;2022-07-23T00:34:08;15.78;;;14.05;;
33347;SDS011;19707;51.158;17.124;2022-07-23T00:37:09;15.50;;;12.03;;
33347;SDS011;19707;51.158;17.124;2022-07-23T00:40:11;15.40;;;13.75;;
33347;SDS011;19707;51.158;17.124;2022-07-23T00:43:12;15.53;;;13.22;;
33347;SDS011;19707;51.158;17.124;2022-07-23T00:46:18;16.20;;;13.55;;
33347;SDS011;19707;51.158;17.124;2022-07-23T00:49:23;14.47;;;13.00;;
33347;SDS011;19707;51.158;17.124;2022-07-23T00:52:27;16.27;;;13.83;;
33347;SDS011;19707;51.158;17.124;2022-07-23T00:55:28;19.00;;;13.55;;
33347;SDS011;19707;51.158;17.124;2022-07-23T00:58:30;16.65;;;13.50;;
33347;SDS011;19707;51.158;17.124;2022-07-23T01:01:31;17.32;;;15.15;;
33347;SDS011;19707;51.158;17.124;2022-07-23T01:04:32;18.10;;;15.18;;
33347;SDS011;19707;51.158;17.124;2022-07-23T01:07:34;22.37;;;14.50;;
33347;SDS011;19707;51.158;17.124;2022-07-23T01:10:35;17.27;;;15.08;;
33347;SDS011;19707;51.158;17.124;2022-07-23T01:13:44;18.23;;;13.85;;
33347;SDS011;19707;51.158;17.124;2022-07-23T01:16:46;16.15;;;14.30;;
33347;SDS011;19707;51.158;17.124;2022-07-23T01:19:49;17.55;;;14.53;;
33347;SDS011;19707;51.158;17.124;2022-07-23T01:22:50;21.30;;;14.58;;
33347;SDS011;19707;51.158;17.124;2022-07-23T01:25:53;15.03;;;13.40;;
33347;SDS011;19707;51.158;17.124;2022-07-23T01:28:55;19.40;;;13.88;;
33347;SDS011;19707;51.158;17.124;2022-07-23T01:31:56;18.00;;;14.65;;
33347;SDS011;19707;51.158;17.124;2022-07-23T01:34:57;15.88;;;14.30;;
33347;SDS011;19707;51.158;17.124;2022-07-23T01:37:58;16.42;;;14.58;;
33347;SDS011;19707;51.158;17.124;2022-07-23T01:41:00;19.57;;;14.75;;
33347;SDS011;19707;51.158;17.124;2022-07-23T01:44:01;17.40;;;14.78;;
33347;SDS011;19707;51.158;17.124;2022-07-23T01:47:03;20.40;;;15.45;;
33347;SDS011;19707;51.158;17.124;2022-07-23T01:50:04;16.73;;;14.95;;
33347;SDS011;19707;51.158;17.124;2022-07-23T01:53:08;17.92;;;15.15;;
33347;SDS011;19707;51.158;17.124;2022-07-23T01:56:09;18.77;;;15.68;;
33347;SDS011;19707;51.158;17.124;2022-07-23T01:59:11;16.07;;;13.98;;
33347;SDS011;19707;51.158;17.124;2022-07-23T02:02:12;24.65;;;16.23;;
33347;SDS011;19707;51.158;17.124;2022-07-23T02:05:13;18.02;;;15.43;;
33347;SDS011;19707;51.158;17.124;2022-07-23T02:08:15;17.10;;;14.15;;
33347;SDS011;19707;51.158;17.124;2022-07-23T02:11:17;16.05;;;14.00;;
33347;SDS011;19707;51.158;17.124;2022-07-23T02:14:18;16.60;;;13.85;;
33347;SDS011;19707;51.158;17.124;2022-07-23T02:17:19;18.15;;;14.43;;
33347;SDS011;19707;51.158;17.124;2022-07-23T02:20:20;16.45;;;13.53;;
33347;SDS011;19707;51.158;17.124;2022-07-23T02:23:22;17.23;;;14.70;;
33347;SDS011;19707;51.158;17.124;2022-07-23T02:26:23;17.27;;;14.05;;
33347;SDS011;19707;51.158;17.124;2022-07-23T02:29:25;19.30;;;13.88;;
33347;SDS011;19707;51.158;17.124;2022-07-23T02:32:26;20.10;;;14.95;;
33347;SDS011;19707;51.158;17.124;2022-07-23T02:35:27;17.60;;;13.93;;
33347;SDS011;19707;51.158;17.124;2022-07-23T02:38:29;16.90;;;14.30;;
33347;SDS011;19707;51.158;17.124;2022-07-23T02:41:30;17.32;;;13.70;;
33347;SDS011;19707;51.158;17.124;2022-07-23T02:44:31;16.93;;;13.58;;
33347;SDS011;19707;51.158;17.124;2022-07-23T02:47:33;15.13;;;13.30;;
33347;SDS011;19707;51.158;17.124;2022-07-23T02:50:34;15.83;;;13.75;;
33347;SDS011;19707;51.158;17.124;2022-07-23T02:53:35;14.28;;;12.80;;
33347;SDS011;19707;51.158;17.124;2022-07-23T02:56:36;15.13;;;13.08;;
33347;SDS011;19707;51.158;17.124;2022-07-23T02:59:37;18.12;;;14.47;;
33347;SDS011;19707;51.158;17.124;2022-07-23T03:02:38;14.45;;;12.73;;
33347;SDS011;19707;51.158;17.124;2022-07-23T03:05:40;15.45;;;13.58;;
33347;SDS011;19707;51.158;17.124;2022-07-23T03:08:41;16.32;;;13.05;;
33347;SDS011;19707;51.158;17.124;2022-07-23T03:11:44;19.73;;;14.13;;
33347;SDS011;19707;51.158;17.124;2022-07-23T03:14:45;19.48;;;13.93;;
33347;SDS011;19707;51.158;17.124;2022-07-23T03:17:47;14.03;;;12.63;;
33347;SDS011;19707;51.158;17.124;2022-07-23T03:20:49;14.90;;;12.85;;
33347;SDS011;19707;51.158;17.124;2022-07-23T03:23:53;17.12;;;12.98;;
33347;SDS011;19707;51.158;17.124;2022-07-23T03:26:54;14.00;;;12.60;;
33347;SDS011;19707;51.158;17.124;2022-07-23T03:29:56;19.73;;;13.25;;
33347;SDS011;19707;51.158;17.124;2022-07-23T03:32:59;14.87;;;13.40;;
33347;SDS011;19707;51.158;17.124;2022-07-23T03:36:00;15.80;;;13.13;;
33347;SDS011;19707;51.158;17.124;2022-07-23T03:39:02;15.43;;;13.43;;
33347;SDS011;19707;51.158;17.124;2022-07-23T03:42:04;14.35;;;12.88;;
33347;SDS011;19707;51.158;17.124;2022-07-23T03:45:06;14.93;;;13.43;;
33347;SDS011;19707;51.158;17.124;2022-07-23T03:48:07;13.95;;;12.58;;
33347;SDS011;19707;51.158;17.124;2022-07-23T03:51:09;13.83;;;11.90;;
33347;SDS011;19707;51.158;17.124;2022-07-23T03:54:10;16.77;;;13.05;;
33347;SDS011;19707;51.158;17.124;2022-07-23T03:57:11;15.55;;;13.13;;
33347;SDS011;19707;51.158;17.124;2022-07-23T04:00:13;13.93;;;12.50;;
33347;SDS011;19707;51.158;17.124;2022-07-23T04:03:15;14.87;;;13.30;;
33347;SDS011;19707;51.158;17.124;2022-07-23T04:06:16;17.62;;;12.30;;
33347;SDS011;19707;51.158;17.124;2022-07-23T04:09:18;15.83;;;11.38;;
33347;SDS011;19707;51.158;17.124;2022-07-23T04:12:19;14.70;;;12.45;;
33347;SDS011;19707;51.158;17.124;2022-07-23T04:15:20;13.72;;;12.30;;
33347;SDS011;19707;51.158;17.124;2022-07-23T04:18:21;15.40;;;12.70;;
33347;SDS011;19707;51.158;17.124;2022-07-23T04:21:24;15.25;;;12.85;;
33347;SDS011;19707;51.158;17.124;2022-07-23T04:24:25;14.07;;;11.50;;
33347;SDS011;19707;51.158;17.124;2022-07-23T04:27:26;14.68;;;11.63;;
33347;SDS011;19707;51.158;17.124;2022-07-23T04:30:27;16.42;;;12.30;;
33347;SDS011;19707;51.158;17.124;2022-07-23T04:33:28;13.55;;;12.18;;
33347;SDS011;19707;51.158;17.124;2022-07-23T04:36:30;15.95;;;12.98;;
33347;SDS011;19707;51.158;17.124;2022-07-23T04:39:31;15.45;;;12.23;;
33347;SDS011;19707;51.158;17.124;2022-07-23T04:42:32;17.37;;;12.70;;
33347;SDS011;19707;51.158;17.124;2022-07-23T04:45:33;14.07;;;12.63;;
33347;SDS011;19707;51.158;17.124;2022-07-23T04:48:34;15.90;;;12.10;;
33347;SDS011;19707;51.158;17.124;2022-07-23T04:51:35;17.48;;;12.68;;
33347;SDS011;19707;51.158;17.124;2022-07-23T04:54:37;13.95;;;11.80;;
33347;SDS011;19707;51.158;17.124;2022-07-23T04:57:38;14.18;;;11.33;;
33347;SDS011;19707;51.158;17.124;2022-07-23T05:00:39;12.75;;;11.45;;
33347;SDS011;19707;51.158;17.124;2022-07-23T05:03:40;15.13;;;11.38;;
33347;SDS011;19707;51.158;17.124;2022-07-23T05:06:41;15.65;;;11.20;;
33347;SDS011;19707;51.158;17.124;2022-07-23T05:09:43;11.57;;;9.55;;
33347;SDS011;19707;51.158;17.124;2022-07-23T05:12:44;10.95;;;9.80;;
33347;SDS011;19707;51.158;17.124;2022-07-23T05:15:45;9.90;;;8.90;;
33347;SDS011;19707;51.158;17.124;2022-07-23T05:18:47;10.88;;;9.78;;
33347;SDS011;19707;51.158;17.124;2022-07-23T05:21:48;15.28;;;10.23;;
33347;SDS011;19707;51.158;17.124;2022-07-23T05:24:49;11.15;;;10.05;;
33347;SDS011;19707;51.158;17.124;2022-07-23T05:27:50;11.93;;;9.75;;
33347;SDS011;19707;51.158;17.124;2022-07-23T05:30:52;13.18;;;9.28;;
33347;SDS011;19707;51.158;17.124;2022-07-23T05:33:53;15.28;;;10.35;;
33347;SDS011;19707;51.158;17.124;2022-07-23T05:36:54;12.25;;;9.45;;
33347;SDS011;19707;51.158;17.124;2022-07-23T05:39:59;13.40;;;10.23;;
33347;SDS011;19707;51.158;17.124;2022-07-23T05:43:04;10.43;;;9.43;;
33347;SDS011;19707;51.158;17.124;2022-07-23T05:46:05;12.88;;;9.75;;
33347;SDS011;19707;51.158;17.124;2022-07-23T05:49:06;11.65;;;9.58;;
33347;SDS011;19707;51.158;17.124;2022-07-23T05:52:07;11.55;;;9.88;;
33347;SDS011;19707;51.158;17.124;2022-07-23T05:55:10;10.58;;;9.45;;
33347;SDS011;19707;51.158;17.124;2022-07-23T05:58:13;10.08;;;8.75;;
33347;SDS011;19707;51.158;17.124;2022-07-23T06:01:17;9.83;;;8.70;;
33347;SDS011;19707;51.158;17.124;2022-07-23T06:04:18;13.53;;;9.75;;
33347;SDS011;19707;51.158;17.124;2022-07-23T06:07:20;9.55;;;8.63;;
33347;SDS011;19707;51.158;17.124;2022-07-23T06:10:21;9.98;;;9.08;;
33347;SDS011;19707;51.158;17.124;2022-07-23T06:13:22;11.00;;;9.20;;
33347;SDS011;19707;51.158;17.124;2022-07-23T06:16:24;10.15;;;8.40;;
33347;SDS011;19707;51.158;17.124;2022-07-23T06:19:25;10.48;;;9.45;;
33347;SDS011;19707;51.158;17.124;2022-07-23T06:22:27;11.22;;;9.48;;
33347;SDS011;19707;51.158;17.124;2022-07-23T06:25:28;11.05;;;8.73;;
33347;SDS011;19707;51.158;17.124;2022-07-23T06:28:29;12.07;;;9.35;;
33347;SDS011;19707;51.158;17.124;2022-07-23T06:31:33;9.95;;;9.03;;
33347;SDS011;19707;51.158;17.124;2022-07-23T06:34:35;12.60;;;8.85;;
33347;SDS011;19707;51.158;17.124;2022-07-23T06:37:36;10.30;;;9.28;;
33347;SDS011;19707;51.158;17.124;2022-07-23T06:40:37;11.43;;;9.40;;
33347;SDS011;19707;51.158;17.124;2022-07-23T06:43:38;13.10;;;9.75;;
33347;SDS011;19707;51.158;17.124;2022-07-23T06:46:39;10.15;;;9.15;;
33347;SDS011;19707;51.158;17.124;2022-07-23T06:49:41;11.08;;;9.90;;
33347;SDS011;19707;51.158;17.124;2022-07-23T06:52:42;11.75;;;8.88;;
33347;SDS011;19707;51.158;17.124;2022-07-23T06:55:43;12.18;;;9.50;;
33347;SDS011;19707;51.158;17.124;2022-07-23T06:58:44;10.98;;;9.45;;
33347;SDS011;19707;51.158;17.124;2022-07-23T07:01:45;10.63;;;9.63;;
33347;SDS011;19707;51.158;17.124;2022-07-23T07:04:46;10.43;;;9.38;;
33347;SDS011;19707;51.158;17.124;2022-07-23T07:07:48;11.25;;;9.85;;
33347;SDS011;19707;51.158;17.124;2022-07-23T07:10:49;9.55;;;8.60;;
33347;SDS011;19707;51.158;17.124;2022-07-23T07:13:50;10.30;;;9.23;;
33347;SDS011;19707;51.158;17.124;2022-07-23T07:16:52;11.70;;;9.55;;
33347;SDS011;19707;51.158;17.124;2022-07-23T07:19:55;12.10;;;9.60;;
33347;SDS011;19707;51.158;17.124;2022-07-23T07:22:57;9.80;;;8.90;;
33347;SDS011;19707;51.158;17.124;2022-07-23T07:25:59;12.15;;;8.93;;
33347;SDS011;19707;51.158;17.124;2022-07-23T07:29:00;9.83;;;8.73;;
33347;SDS011;19707;51.158;17.124;2022-07-23T07:32:03;10.70;;;9.00;;
33347;SDS011;19707;51.158;17.124;2022-07-23T07:35:06;9.80;;;8.68;;
33347;SDS011;19707;51.158;17.124;2022-07-23T07:38:08;9.85;;;8.98;;
33347;SDS011;19707;51.158;17.124;2022-07-23T07:41:09;10.68;;;9.68;;
33347;SDS011;19707;51.158;17.124;2022-07-23T07:44:11;10.90;;;9.30;;
33347;SDS011;19707;51.158;17.124;2022-07-23T07:47:12;9.80;;;8.80;;
33347;SDS011;19707;51.158;17.124;2022-07-23T07:50:15;12.20;;;9.10;;
33347;SDS011;19707;51.158;17.124;2022-07-23T07:53:17;11.33;;;9.45;;
33347;SDS011;19707;51.158;17.124;2022-07-23T07:56:18;10.15;;;9.15;;
33347;SDS011;19707;51.158;17.124;2022-07-23T07:59:19;10.55;;;9.55;;
33347;SDS011;19707;51.158;17.124;2022-07-23T08:02:20;10.78;;;9.20;;
33347;SDS011;19707;51.158;17.124;2022-07-23T08:05:22;12.70;;;10.10;;
33347;SDS011;19707;51.158;17.124;2022-07-23T08:08:26;10.03;;;9.03;;
33347;SDS011;19707;51.158;17.124;2022-07-23T08:11:27;12.95;;;10.30;;
33347;SDS011;19707;51.158;17.124;2022-07-23T08:14:28;10.40;;;9.40;;
33347;SDS011;19707;51.158;17.124;2022-07-23T08:17:29;11.43;;;9.53;;
33347;SDS011;19707;51.158;17.124;2022-07-23T08:20:32;14.75;;;8.95;;
33347;SDS011;19707;51.158;17.124;2022-07-23T08:23:33;10.95;;;9.53;;
33347;SDS011;19707;51.158;17.124;2022-07-23T08:26:35;9.93;;;9.03;;
33347;SDS011;19707;51.158;17.124;2022-07-23T08:29:36;9.65;;;8.65;;
33347;SDS011;19707;51.158;17.124;2022-07-23T08:32:56;11.28;;;9.03;;
33347;SDS011;19707;51.158;17.124;2022-07-23T08:36:02;11.30;;;9.18;;
33347;SDS011;19707;51.158;17.124;2022-07-23T08:39:04;9.75;;;8.75;;
33347;SDS011;19707;51.158;17.124;2022-07-23T08:42:06;12.55;;;11.25;;
33347;SDS011;19707;51.158;17.124;2022-07-23T08:45:07;13.58;;;10.25;;
33347;SDS011;19707;51.158;17.124;2022-07-23T08:48:12;10.48;;;9.53;;
33347;SDS011;19707;51.158;17.124;2022-07-23T08:51:19;10.45;;;8.70;;
33347;SDS011;19707;51.158;17.124;2022-07-23T08:54:21;12.03;;;9.13;;
33347;SDS011;19707;51.158;17.124;2022-07-23T08:57:23;10.40;;;9.40;;
33347;SDS011;19707;51.158;17.124;2022-07-23T09:00:24;17.87;;;10.48;;
33347;SDS011;19707;51.158;17.124;2022-07-23T09:03:26;14.65;;;9.90;;
33347;SDS011;19707;51.158;17.124;2022-07-23T09:06:30;10.68;;;9.20;;
33347;SDS011;19707;51.158;17.124;2022-07-23T09:09:31;14.25;;;9.33;;
33347;SDS011;19707;51.158;17.124;2022-07-23T09:12:33;14.38;;;10.03;;
33347;SDS011;19707;51.158;17.124;2022-07-23T09:15:46;15.28;;;10.95;;
33347;SDS011;19707;51.158;17.124;2022-07-23T09:18:51;14.18;;;10.78;;
33347;SDS011;19707;51.158;17.124;2022-07-23T09:21:55;11.10;;;10.00;;
33347;SDS011;19707;51.158;17.124;2022-07-23T09:28:16;12.33;;;9.48;;
33347;SDS011;19707;51.158;17.124;2022-07-23T09:31:18;11.00;;;9.73;;
33347;SDS011;19707;51.158;17.124;2022-07-23T09:34:29;12.95;;;10.23;;
33347;SDS011;19707;51.158;17.124;2022-07-23T09:37:34;12.18;;;10.13;;
33347;SDS011;19707;51.158;17.124;2022-07-23T09:40:35;10.82;;;9.80;;
33347;SDS011;19707;51.158;17.124;2022-07-23T09:43:37;19.37;;;10.68;;
33347;SDS011;19707;51.158;17.124;2022-07-23T09:46:38;17.57;;;10.50;;
33347;SDS011;19707;51.158;17.124;2022-07-23T09:49:40;11.90;;;10.70;;
33347;SDS011;19707;51.158;17.124;2022-07-23T09:53:26;13.00;;;10.20;;
33347;SDS011;19707;51.158;17.124;2022-07-23T09:56:27;11.60;;;10.40;;
33347;SDS011;19707;51.158;17.124;2022-07-23T09:59:31;12.60;;;10.35;;
33347;SDS011;19707;51.158;17.124;2022-07-23T10:02:36;12.33;;;9.95;;
33347;SDS011;19707;51.158;17.124;2022-07-23T10:05:38;11.40;;;9.43;;
33347;SDS011;19707;51.158;17.124;2022-07-23T10:08:41;12.13;;;10.68;;
33347;SDS011;19707;51.158;17.124;2022-07-23T10:11:42;11.55;;;10.23;;
33347;SDS011;19707;51.158;17.124;2022-07-23T10:14:44;13.05;;;9.60;;
33347;SDS011;19707;51.158;17.124;2022-07-23T10:17:47;12.85;;;10.05;;
33347;SDS011;19707;51.158;17.124;2022-07-23T10:20:49;10.50;;;9.20;;
33347;SDS011;19707;51.158;17.124;2022-07-23T10:23:57;12.25;;;9.20;;
33347;SDS011;19707;51.158;17.124;2022-07-23T10:37:42;11.97;;;10.60;;
33347;SDS011;19707;51.158;17.124;2022-07-23T10:44:09;11.33;;;9.68;;
33347;SDS011;19707;51.158;17.124;2022-07-23T10:47:25;10.85;;;9.75;;
33347;SDS011;19707;51.158;17.124;2022-07-23T10:54:20;12.50;;;10.38;;
33347;SDS011;19707;51.158;17.124;2022-07-23T10:57:28;13.98;;;11.97;;
33347;SDS011;19707;51.158;17.124;2022-07-23T11:00:32;14.75;;;11.35;;
33347;SDS011;19707;51.158;17.124;2022-07-23T11:03:37;12.88;;;10.48;;
33347;SDS011;19707;51.158;17.124;2022-07-23T11:16:27;14.33;;;11.33;;
33347;SDS011;19707;51.158;17.124;2022-07-23T11:19:29;13.20;;;10.53;;
33347;SDS011;19707;51.158;17.124;2022-07-23T11:22:36;15.18;;;10.85;;
33347;SDS011;19707;51.158;17.124;2022-07-23T11:25:48;13.25;;;11.85;;
33347;SDS011;19707;51.158;17.124;2022-07-23T11:28:51;13.03;;;11.10;;
33347;SDS011;19707;51.158;17.124;2022-07-23T11:32:01;16.57;;;12.23;;
33347;SDS011;19707;51.158;17.124;2022-07-23T11:35:20;15.85;;;12.00;;
33347;SDS011;19707;51.158;17.124;2022-07-23T11:38:28;12.58;;;11.28;;
33347;SDS011;19707;51.158;17.124;2022-07-23T11:41:43;13.08;;;11.75;;
33347;SDS011;19707;51.158;17.124;2022-07-23T11:44:46;12.20;;;11.03;;
33347;SDS011;19707;51.158;17.124;2022-07-23T11:47:47;14.13;;;12.40;;
33347;SDS011;19707;51.158;17.124;2022-07-23T11:50:49;15.43;;;12.05;;
33347;SDS011;19707;51.158;17.124;2022-07-23T11:53:52;14.63;;;12.10;;
33347;SDS011;19707;51.158;17.124;2022-07-23T11:56:57;13.18;;;11.78;;
33347;SDS011;19707;51.158;17.124;2022-07-23T12:03:15;15.35;;;13.68;;
33347;SDS011;19707;51.158;17.124;2022-07-23T12:06:17;15.30;;;13.65;;
33347;SDS011;19707;51.158;17.124;2022-07-23T12:09:20;15.63;;;14.07;;
33347;SDS011;19707;51.158;17.124;2022-07-23T12:12:27;15.95;;;13.90;;
33347;SDS011;19707;51.158;17.124;2022-07-23T12:15:31;16.55;;;14.13;;
33347;SDS011;19707;51.158;17.124;2022-07-23T12:18:44;14.75;;;13.32;;
33347;SDS011;19707;51.158;17.124;2022-07-23T12:21:47;18.00;;;12.77;;
33347;SDS011;19707;51.158;17.124;2022-07-23T12:25:00;14.05;;;12.60;;
33347;SDS011;19707;51.158;17.124;2022-07-23T12:28:08;17.90;;;14.18;;
33347;SDS011;19707;51.158;17.124;2022-07-23T12:31:15;12.82;;;11.70;;
33347;SDS011;19707;51.158;17.124;2022-07-23T12:34:16;13.90;;;11.88;;
33347;SDS011;19707;51.158;17.124;2022-07-23T12:37:30;14.07;;;12.58;;
33347;SDS011;19707;51.158;17.124;2022-07-23T12:40:32;14.18;;;12.37;;
33347;SDS011;19707;51.158;17.124;2022-07-23T12:43:37;17.23;;;11.28;;
33347;SDS011;19707;51.158;17.124;2022-07-23T12:46:41;11.88;;;10.72;;
33347;SDS011;19707;51.158;17.124;2022-07-23T12:49:43;10.23;;;9.23;;
33347;SDS011;19707;51.158;17.124;2022-07-23T12:52:44;11.15;;;9.70;;
33347;SDS011;19707;51.158;17.124;2022-07-23T12:55:46;11.78;;;10.58;;
33347;SDS011;19707;51.158;17.124;2022-07-23T12:58:53;12.20;;;10.88;;
33347;SDS011;19707;51.158;17.124;2022-07-23T13:02:01;11.73;;;10.55;;
33347;SDS011;19707;51.158;17.124;2022-07-23T13:05:03;10.43;;;9.53;;
33347;SDS011;19707;51.158;17.124;2022-07-23T13:08:04;15.63;;;11.38;;
33347;SDS011;19707;51.158;17.124;2022-07-23T13:11:06;14.58;;;11.55;;
33347;SDS011;19707;51.158;17.124;2022-07-23T13:14:07;13.65;;;10.28;;
33347;SDS011;19707;51.158;17.124;2022-07-23T13:17:09;11.43;;;10.32;;
33347;SDS011;19707;51.158;17.124;2022-07-23T13:20:10;13.25;;;10.48;;
33347;SDS011;19707;51.158;17.124;2022-07-23T13:23:12;12.00;;;10.75;;
33347;SDS011;19707;51.158;17.124;2022-07-23T13:26:14;17.23;;;11.08;;
33347;SDS011;19707;51.158;17.124;2022-07-23T13:29:15;16.48;;;10.58;;
33347;SDS011;19707;51.158;17.124;2022-07-23T13:32:17;12.25;;;10.28;;
33347;SDS011;19707;51.158;17.124;2022-07-23T13:35:18;11.97;;;10.90;;
33347;SDS011;19707;51.158;17.124;2022-07-23T13:38:21;11.43;;;10.43;;
33347;SDS011;19707;51.158;17.124;2022-07-23T13:41:22;12.28;;;11.05;;
33347;SDS011;19707;51.158;17.124;2022-07-23T13:44:24;12.70;;;11.40;;
33347;SDS011;19707;51.158;17.124;2022-07-23T13:47:26;16.37;;;11.00;;
33347;SDS011;19707;51.158;17.124;2022-07-23T13:50:27;13.30;;;11.45;;
33347;SDS011;19707;51.158;17.124;2022-07-23T13:53:28;12.40;;;10.78;;
33347;SDS011;19707;51.158;17.124;2022-07-23T13:56:30;16.23;;;12.60;;
33347;SDS011;19707;51.158;17.124;2022-07-23T13:59:31;13.58;;;12.05;;
33347;SDS011;19707;51.158;17.124;2022-07-23T14:02:34;17.35;;;11.63;;
33347;SDS011;19707;51.158;17.124;2022-07-23T14:05:38;13.50;;;12.03;;
33347;SDS011;19707;51.158;17.124;2022-07-23T14:08:39;14.63;;;11.90;;
33347;SDS011;19707;51.158;17.124;2022-07-23T14:11:41;13.68;;;12.37;;
33347;SDS011;19707;51.158;17.124;2022-07-23T14:14:42;12.60;;;11.40;;
33347;SDS011;19707;51.158;17.124;2022-07-23T14:17:44;12.53;;;11.33;;
33347;SDS011;19707;51.158;17.124;2022-07-23T14:20:46;14.87;;;11.15;;
33347;SDS011;19707;51.158;17.124;2022-07-23T14:23:47;14.93;;;12.00;;
33347;SDS011;19707;51.158;17.124;2022-07-23T14:26:48;12.70;;;11.50;;
33347;SDS011;19707;51.158;17.124;2022-07-23T14:29:50;13.65;;;12.40;;
33347;SDS011;19707;51.158;17.124;2022-07-23T14:32:51;15.75;;;11.65;;
33347;SDS011;19707;51.158;17.124;2022-07-23T14:35:52;13.95;;;12.40;;
33347;SDS011;19707;51.158;17.124;2022-07-23T14:38:54;12.93;;;11.50;;
33347;SDS011;19707;51.158;17.124;2022-07-23T14:41:55;12.33;;;11.05;;
33347;SDS011;19707;51.158;17.124;2022-07-23T14:44:57;16.87;;;12.35;;
33347;SDS011;19707;51.158;17.124;2022-07-23T14:47:58;14.03;;;12.50;;
33347;SDS011;19707;51.158;17.124;2022-07-23T14:50:59;14.55;;;12.15;;
33347;SDS011;19707;51.158;17.124;2022-07-23T14:54:00;19.85;;;11.88;;
33347;SDS011;19707;51.158;17.124;2022-07-23T14:57:02;15.60;;;12.25;;
33347;SDS011;19707;51.158;17.124;2022-07-23T15:00:04;14.93;;;11.63;;
33347;SDS011;19707;51.158;17.124;2022-07-23T15:03:08;15.40;;;12.07;;
33347;SDS011;19707;51.158;17.124;2022-07-23T15:06:09;16.42;;;12.98;;
33347;SDS011;19707;51.158;17.124;2022-07-23T15:09:11;13.78;;;12.35;;
33347;SDS011;19707;51.158;17.124;2022-07-23T15:12:12;14.18;;;12.82;;
33347;SDS011;19707;51.158;17.124;2022-07-23T15:15:13;16.10;;;12.47;;
33347;SDS011;19707;51.158;17.124;2022-07-23T15:18:15;15.23;;;12.98;;
33347;SDS011;19707;51.158;17.124;2022-07-23T15:21:17;15.40;;;13.78;;
33347;SDS011;19707;51.158;17.124;2022-07-23T15:24:18;15.88;;;13.15;;
33347;SDS011;19707;51.158;17.124;2022-07-23T15:27:19;14.18;;;12.68;;
33347;SDS011;19707;51.158;17.124;2022-07-23T15:30:20;14.73;;;12.70;;
33347;SDS011;19707;51.158;17.124;2022-07-23T15:33:22;13.95;;;12.47;;
33347;SDS011;19707;51.158;17.124;2022-07-23T15:36:23;13.50;;;12.28;;
33347;SDS011;19707;51.158;17.124;2022-07-23T15:39:24;12.98;;;11.68;;
33347;SDS011;19707;51.158;17.124;2022-07-23T15:42:26;15.58;;;13.95;;
33347;SDS011;19707;51.158;17.124;2022-07-23T15:45:27;13.22;;;11.93;;
33347;SDS011;19707;51.158;17.124;2022-07-23T15:48:30;13.33;;;12.07;;
33347;SDS011;19707;51.158;17.124;2022-07-23T15:51:33;13.15;;;11.90;;
33347;SDS011;19707;51.158;17.124;2022-07-23T15:54:34;13.18;;;11.97;;
33347;SDS011;19707;51.158;17.124;2022-07-23T15:57:37;12.98;;;11.70;;
33347;SDS011;19707;51.158;17.124;2022-07-23T16:00:38;12.10;;;10.88;;
33347;SDS011;19707;51.158;17.124;2022-07-23T16:03:40;13.48;;;12.18;;
33347;SDS011;19707;51.158;17.124;2022-07-23T16:06:41;13.90;;;12.60;;
33347;SDS011;19707;51.158;17.124;2022-07-23T16:09:43;14.78;;;13.45;;
33347;SDS011;19707;51.158;17.124;2022-07-23T16:12:44;13.88;;;12.60;;
33347;SDS011;19707;51.158;17.124;2022-07-23T16:15:45;15.00;;;13.50;;
33347;SDS011;19707;51.158;17.124;2022-07-23T16:18:47;17.98;;;12.40;;
33347;SDS011;19707;51.158;17.124;2022-07-23T16:21:51;16.42;;;12.47;;
33347;SDS011;19707;51.158;17.124;2022-07-23T16:24:52;13.18;;;11.57;;
33347;SDS011;19707;51.158;17.124;2022-07-23T16:27:53;14.35;;;12.10;;
33347;SDS011;19707;51.158;17.124;2022-07-23T16:30:54;13.48;;;12.18;;
33347;SDS011;19707;51.158;17.124;2022-07-23T16:33:56;12.82;;;11.53;;
33347;SDS011;19707;51.158;17.124;2022-07-23T16:36:57;13.05;;;11.75;;
33347;SDS011;19707;51.158;17.124;2022-07-23T16:39:58;13.00;;;11.75;;
33347;SDS011;19707;51.158;17.124;2022-07-23T16:43:00;12.78;;;11.38;;
33347;SDS011;19707;51.158;17.124;2022-07-23T16:46:01;14.10;;;11.85;;
33347;SDS011;19707;51.158;17.124;2022-07-23T16:49:03;11.63;;;10.63;;
33347;SDS011;19707;51.158;17.124;2022-07-23T16:52:05;13.48;;;11.15;;
33347;SDS011;19707;51.158;17.124;2022-07-23T16:55:06;12.03;;;10.72;;
33347;SDS011;19707;51.158;17.124;2022-07-23T16:58:09;11.73;;;10.53;;
33347;SDS011;19707;51.158;17.124;2022-07-23T17:01:10;12.65;;;11.45;;
33347;SDS011;19707;51.158;17.124;2022-07-23T17:04:11;12.45;;;11.15;;
33347;SDS011;19707;51.158;17.124;2022-07-23T17:07:13;13.70;;;12.30;;
33347;SDS011;19707;51.158;17.124;2022-07-23T17:10:14;12.45;;;11.35;;
33347;SDS011;19707;51.158;17.124;2022-07-23T17:13:15;12.20;;;11.00;;
33347;SDS011;19707;51.158;17.124;2022-07-23T17:16:17;10.98;;;9.78;;
33347;SDS011;19707;51.158;17.124;2022-07-23T17:19:19;11.97;;;10.85;;
33347;SDS011;19707;51.158;17.124;2022-07-23T17:22:20;11.38;;;9.95;;
33347;SDS011;19707;51.158;17.124;2022-07-23T17:25:22;11.85;;;10.65;;
33347;SDS011;19707;51.158;17.124;2022-07-23T17:28:23;11.48;;;10.23;;
33347;SDS011;19707;51.158;17.124;2022-07-23T17:31:24;10.45;;;9.55;;
33347;SDS011;19707;51.158;17.124;2022-07-23T17:34:26;11.63;;;10.53;;
33347;SDS011;19707;51.158;17.124;2022-07-23T17:37:28;10.70;;;9.60;;
33347;SDS011;19707;51.158;17.124;2022-07-23T17:40:29;10.32;;;9.43;;
33347;SDS011;19707;51.158;17.124;2022-07-23T17:43:31;10.72;;;9.70;;
33347;SDS011;19707;51.158;17.124;2022-07-23T17:46:32;10.55;;;9.63;;
33347;SDS011;19707;51.158;17.124;2022-07-23T17:49:35;10.10;;;9.28;;
33347;SDS011;19707;51.158;17.124;2022-07-23T17:52:43;11.43;;;9.98;;
33347;SDS011;19707;51.158;17.124;2022-07-23T17:55:52;10.90;;;9.40;;
33347;SDS011;19707;51.158;17.124;2022-07-23T17:58:54;10.43;;;9.43;;
33347;SDS011;19707;51.158;17.124;2022-07-23T18:01:56;11.75;;;9.60;;
33347;SDS011;19707;51.158;17.124;2022-07-23T18:04:57;9.53;;;8.73;;
33347;SDS011;19707;51.158;17.124;2022-07-23T18:08:03;9.48;;;8.58;;
33347;SDS011;19707;51.158;17.124;2022-07-23T18:11:05;9.20;;;8.30;;